首页
METAR-TAF:

METAR-TAF

机场 :

不来梅机场

不来梅, 德国

纬度: 53-03N, 经度: 008-48E, 海拔: 3米

当前天气观测

该预报发布于35分钟前的06:20 UTC
风速4节,风向,在南转南东南转西南之间变化
温度 1°C
湿度 100%
气压 1019 hPa
能見度: 0200
阴天层高于100英尺

METAR: EDDW 200620Z 19004KT 150V210 0200 R09/0900U FG OVC001 01/01 Q1019 NOSIG

时间: 07:55 (06:55 UTC)

预报

该预报发布于55分钟前的06:00 UTC
预报有效从20日的 06点(UTC)到 21日的 06点(UTC)
风速2节,风向多变
能見度: 0100
阴天层高于100英尺
短暂存在
从 20日的 06点(UTC)到 20日的 09点(UTC)
能見度: 0800
阴天层高于200英尺
成为
从 20日的 09点(UTC)到 20日的 11点(UTC)
能見度: 2000
多云层高于400英尺
轻雾
成为
从 20日的 11点(UTC)到 20日的 13点(UTC)
能見度: 6000
多云层高于1500英尺
成为
从 20日的 18点(UTC)到 20日的 20点(UTC)
多云层高于800英尺
几率 30% :
短暂存在
从 20日的 20点(UTC)到 20日的 24点(UTC)
能見度: 1200
多云层高于400英尺
碎片雾
几率 30% :
短暂存在
从 21日的 00点(UTC)到 21日的 06点(UTC)
能見度: 0600
多云层高于400英尺
成为
从 21日的 04点(UTC)到 21日的 06点(UTC)
风速6节,风向

TAF: EDDW 200600Z 2006/2106 VRB02KT 0100 FG OVC001 TEMPO 2006/2009 0800 FG OVC002 BECMG 2009/2011 2000 BR BKN004 BECMG 2011/2013 6000 BKN015 BECMG 2018/2020 BKN008 PROB30 TEMPO 2020/2024 1200 BCFG BKN004 PROB30 TEMPO 2100/2106 0600 FG BKN004 BECMG 2104/2106 08006KT

超过4000个机场的气象观测和天气预报(METAR&TAF报告)。

可查询的气象台以黄色和红色小点在地图上表示。

将鼠标移到小点上方,可查看气象台名称。

然后点击查看天气观测和预报。

如需切换地图:点击带黑十字的绿色按钮放大地图;点击带横线的绿色按钮缩小地图;或者点击绿色箭头查看邻近地区的地图。


METAR-TAF: